createdAt,value
2019-01-25T00:01:11.011Z,-1.00
2019-01-25T00:03:41.270Z,-1.00
2019-01-25T00:06:10.612Z,-1.00
2019-01-25T00:08:39.691Z,-1.10
2019-01-25T00:11:08.822Z,-1.10
2019-01-25T00:13:37.858Z,-1.00
2019-01-25T00:16:07.048Z,-1.00
2019-01-25T00:18:36.223Z,-1.00
2019-01-25T00:21:05.316Z,-1.00
2019-01-25T00:23:34.410Z,-1.00
2019-01-25T00:26:03.571Z,-1.00
2019-01-25T00:28:32.687Z,-1.00
2019-01-25T00:31:01.762Z,-1.00
2019-01-25T00:33:30.859Z,-1.00
2019-01-25T00:35:59.887Z,-1.00
2019-01-25T00:38:28.974Z,-1.00
2019-01-25T00:40:57.963Z,-1.00
2019-01-25T00:43:27.046Z,-1.00
2019-01-25T00:45:56.134Z,-1.00
2019-01-25T00:48:25.163Z,-1.00
2019-01-25T00:50:54.341Z,-1.00
2019-01-25T00:53:23.498Z,-1.00
2019-01-25T00:55:52.592Z,-1.00
2019-01-25T00:58:21.602Z,-1.00
2019-01-25T01:00:50.684Z,-1.00
2019-01-25T01:03:19.791Z,-1.00
2019-01-25T01:05:48.885Z,-1.00
2019-01-25T01:08:17.903Z,-1.00
2019-01-25T01:10:47.019Z,-1.00
2019-01-25T01:13:16.046Z,-1.00
2019-01-25T01:15:45.214Z,-1.00
2019-01-25T01:18:14.239Z,-1.00
2019-01-25T01:20:43.322Z,-1.00
2019-01-25T01:23:12.404Z,-1.00
2019-01-25T01:25:41.567Z,-1.10
2019-01-25T01:28:10.673Z,-1.10
2019-01-25T01:30:39.744Z,-1.10
2019-01-25T01:33:08.838Z,-1.10
2019-01-25T01:35:37.923Z,-1.10
2019-01-25T01:38:07.044Z,-1.00
2019-01-25T01:40:36.123Z,-1.00
2019-01-25T01:43:05.218Z,-1.00
2019-01-25T01:45:34.310Z,-1.00
2019-01-25T01:48:03.311Z,-1.00
2019-01-25T01:50:32.394Z,-1.00
2019-01-25T01:53:01.516Z,-1.00
2019-01-25T01:55:30.570Z,-1.10
2019-01-25T01:57:59.968Z,-1.10
2019-01-25T02:00:29.020Z,-1.10
2019-01-25T02:02:58.166Z,-1.10
2019-01-25T02:05:27.315Z,-1.10
2019-01-25T02:07:56.427Z,-1.10
2019-01-25T02:10:29.540Z,-1.10
2019-01-25T02:12:57.605Z,-1.10
2019-01-25T02:15:26.803Z,-1.20
2019-01-25T02:17:55.938Z,-1.10
2019-01-25T02:20:29.994Z,-1.10
2019-01-25T02:22:59.091Z,-1.10
2019-01-25T02:25:28.166Z,-1.10
2019-01-25T02:27:57.178Z,-1.20
2019-01-25T02:30:27.100Z,-1.10
2019-01-25T02:32:56.273Z,-1.10
2019-01-25T02:35:25.447Z,-1.10
2019-01-25T02:37:54.584Z,-1.10
2019-01-25T02:40:25.349Z,-1.10
2019-01-25T02:42:54.639Z,-1.10
2019-01-25T02:45:23.751Z,-1.10
2019-01-25T02:47:52.918Z,-1.10
2019-01-25T02:50:22.010Z,-1.10
2019-01-25T02:52:51.112Z,-1.10
2019-01-25T02:55:20.207Z,-1.10
2019-01-25T02:57:50.062Z,-1.10
2019-01-25T03:00:20.872Z,-1.10
2019-01-25T03:02:49.972Z,-1.10
2019-01-25T03:05:19.656Z,-1.10
2019-01-25T03:07:48.752Z,-1.00
2019-01-25T03:10:17.926Z,-1.00
2019-01-25T03:12:46.962Z,-1.00
2019-01-25T03:15:20.544Z,-1.10
2019-01-25T03:17:49.727Z,-1.10
2019-01-25T03:20:18.874Z,-1.10
2019-01-25T03:22:47.967Z,-1.10
2019-01-25T03:25:19.246Z,-1.10
2019-01-25T03:27:48.353Z,-1.10
2019-01-25T03:30:19.537Z,-1.10
2019-01-25T03:32:48.694Z,-1.10
2019-01-25T03:35:18.847Z,-1.10
2019-01-25T03:37:47.935Z,-1.10
2019-01-25T03:40:19.250Z,-1.00
2019-01-25T03:42:48.267Z,-1.00
2019-01-25T03:45:17.388Z,-1.00
2019-01-25T03:47:46.480Z,-1.00
2019-01-25T03:50:18.611Z,-1.00
2019-01-25T03:52:47.725Z,-1.00
2019-01-25T03:55:16.756Z,-1.10
2019-01-25T03:57:45.939Z,-1.10
2019-01-25T04:00:17.263Z,-1.10
2019-01-25T04:02:46.384Z,-1.10
2019-01-25T04:05:15.719Z,-1.10
2019-01-25T04:07:45.391Z,-1.10
2019-01-25T04:10:16.469Z,-1.20
2019-01-25T04:12:45.628Z,-1.10
2019-01-25T04:15:20.142Z,-1.20
2019-01-25T04:17:49.225Z,-1.20
2019-01-25T04:20:18.568Z,-1.20
2019-01-25T04:22:47.735Z,-1.20
2019-01-25T04:25:18.559Z,-1.30
2019-01-25T04:27:47.641Z,-1.20
2019-01-25T04:30:22.017Z,-1.20
2019-01-25T04:32:51.220Z,-1.20
2019-01-25T04:35:20.314Z,-1.10
2019-01-25T04:37:49.518Z,-1.10
2019-01-25T04:40:18.627Z,-1.10
2019-01-25T04:42:47.656Z,-1.00
2019-01-25T04:45:18.195Z,-1.10
2019-01-25T04:47:47.208Z,-1.10
2019-01-25T04:50:20.788Z,-1.10
2019-01-25T04:52:49.808Z,-1.10
2019-01-25T04:55:23.478Z,-1.10
2019-01-25T04:57:52.621Z,-1.10
2019-01-25T05:00:22.460Z,-1.10
2019-01-25T05:02:58.869Z,-1.00
2019-01-25T05:05:27.983Z,-1.00
2019-01-25T05:08:05.301Z,-1.00
2019-01-25T05:10:34.526Z,-1.00
2019-01-25T05:13:03.594Z,-1.10
2019-01-25T05:15:32.686Z,-1.00
2019-01-25T05:18:02.049Z,-1.10
2019-01-25T05:20:31.035Z,-1.00
2019-01-25T05:23:00.703Z,-1.00
2019-01-25T05:25:29.711Z,-1.00
2019-01-25T05:28:03.385Z,-1.10
2019-01-25T05:30:32.442Z,-1.00
2019-01-25T05:33:01.552Z,-1.00
2019-01-25T05:35:34.946Z,-1.00
2019-01-25T05:38:03.931Z,-1.00
2019-01-25T05:40:33.087Z,-1.00
2019-01-25T05:43:02.065Z,-1.00
2019-01-25T05:45:31.215Z,-1.00
2019-01-25T05:48:00.319Z,-1.00
2019-01-25T05:50:29.430Z,-1.00
2019-01-25T05:52:58.490Z,-1.00
2019-01-25T05:55:27.578Z,-1.00
2019-01-25T05:58:01.012Z,-0.90
2019-01-25T06:00:33.488Z,-1.00
2019-01-25T06:03:10.730Z,-1.00
2019-01-25T06:05:39.794Z,-1.00
2019-01-25T06:08:32.039Z,-1.00
2019-01-25T06:11:02.841Z,-0.90
2019-01-25T06:13:31.931Z,-0.90
2019-01-25T06:16:01.106Z,-1.00
2019-01-25T06:18:30.316Z,-1.00
2019-01-25T06:20:59.397Z,-1.00
2019-01-25T06:23:28.485Z,-1.00
2019-01-25T06:25:58.817Z,-1.00
2019-01-25T06:28:27.858Z,-1.00
2019-01-25T06:30:56.907Z,-1.00
2019-01-25T06:36:58.379Z,-1.00
2019-01-25T06:39:27.358Z,-1.00
2019-01-25T06:41:56.603Z,-1.00
2019-01-25T06:44:25.794Z,-1.00
2019-01-25T06:46:54.857Z,-1.00
2019-01-25T06:49:23.918Z,-1.10
2019-01-25T06:51:53.026Z,-1.10
2019-01-25T06:54:22.117Z,-1.10
2019-01-25T06:56:51.178Z,-1.10
2019-01-25T06:59:39.209Z,-1.10
2019-01-25T07:02:31.966Z,-1.10
2019-01-25T07:05:01.029Z,-1.10
2019-01-25T07:07:32.673Z,-1.10
2019-01-25T07:10:01.674Z,-1.10
2019-01-25T07:12:30.752Z,-1.10
2019-01-25T07:14:59.797Z,-1.10
2019-01-25T07:17:28.890Z,-1.10
2019-01-25T07:19:57.933Z,-1.10
2019-01-25T07:22:27.198Z,-1.10
2019-01-25T07:24:57.275Z,-1.00
2019-01-25T07:27:26.605Z,-1.00
2019-01-25T07:29:55.670Z,-1.00
2019-01-25T07:32:24.883Z,-1.10
2019-01-25T07:34:53.984Z,-1.10
2019-01-25T07:37:23.260Z,-1.10
2019-01-25T07:39:52.335Z,-1.10
2019-01-25T07:42:21.459Z,-1.10
2019-01-25T07:44:50.490Z,-1.00
2019-01-25T07:47:19.562Z,-1.10
2019-01-25T07:49:48.637Z,-1.00
2019-01-25T07:52:17.751Z,-1.00
2019-01-25T07:54:46.879Z,-1.00
2019-01-25T07:57:15.937Z,-1.00
2019-01-25T07:59:45.098Z,-1.00
2019-01-25T08:02:14.142Z,-1.00
2019-01-25T08:04:43.281Z,-1.00
2019-01-25T08:07:12.555Z,-1.00
2019-01-25T08:09:41.599Z,-1.00
2019-01-25T08:12:10.659Z,-1.00
2019-01-25T08:14:39.671Z,-1.00
2019-01-25T08:17:08.737Z,-1.00
2019-01-25T08:19:37.872Z,-1.00
2019-01-25T08:22:06.973Z,-1.00
2019-01-25T08:24:36.080Z,-0.90
2019-01-25T08:27:05.208Z,-0.90
2019-01-25T08:29:34.307Z,-0.90
2019-01-25T08:32:03.428Z,-0.90
2019-01-25T08:34:32.482Z,-0.80
2019-01-25T08:37:01.569Z,-0.80
2019-01-25T08:39:30.707Z,-0.90
2019-01-25T08:41:59.765Z,-0.90
2019-01-25T08:44:28.908Z,-0.80
2019-01-25T08:46:58.063Z,-0.70
2019-01-25T08:49:27.239Z,-0.70
2019-01-25T08:51:58.182Z,-0.70
2019-01-25T08:54:27.306Z,-0.60
2019-01-25T08:56:56.493Z,-0.70
2019-01-25T08:59:27.355Z,-0.70
2019-01-25T09:01:56.482Z,-0.70
2019-01-25T09:04:25.549Z,-0.70
2019-01-25T09:06:54.610Z,-0.70
2019-01-25T09:09:23.760Z,-0.70
2019-01-25T09:11:52.818Z,-0.70
2019-01-25T09:14:21.831Z,-0.70
2019-01-25T09:16:50.919Z,-0.70
2019-01-25T09:19:20.047Z,-0.60
2019-01-25T09:21:49.125Z,-0.60
2019-01-25T09:24:18.181Z,-0.50
2019-01-25T09:26:47.242Z,-0.40
2019-01-25T09:29:16.250Z,-0.40
2019-01-25T09:31:45.303Z,-0.50
2019-01-25T09:34:14.371Z,-0.40
2019-01-25T09:36:43.470Z,-0.40
2019-01-25T09:39:12.518Z,-0.40
2019-01-25T09:41:41.594Z,-0.40
2019-01-25T09:44:10.613Z,-0.30
2019-01-25T09:46:39.709Z,-0.30
2019-01-25T09:49:08.701Z,-0.20
2019-01-25T09:51:37.798Z,-0.20
2019-01-25T09:54:06.854Z,-0.20
2019-01-25T09:56:35.953Z,-0.10
2019-01-25T09:59:05.538Z,-0.10
2019-01-25T10:01:34.690Z,-0.10
2019-01-25T10:04:03.803Z,-0.10
2019-01-25T10:06:32.866Z,-0.10
2019-01-25T10:09:01.953Z,-0.20
2019-01-25T10:11:30.927Z,-0.10
2019-01-25T10:13:59.982Z,-0.10
2019-01-25T10:16:29.057Z,0.00
2019-01-25T10:18:58.114Z,0.10
2019-01-25T10:21:27.074Z,0.20
2019-01-25T10:23:56.166Z,0.20
2019-01-25T10:26:25.230Z,0.20
2019-01-25T10:28:54.274Z,0.30
2019-01-25T10:31:23.354Z,0.30
2019-01-25T10:33:52.431Z,0.30
2019-01-25T10:36:21.506Z,0.40
2019-01-25T10:38:50.598Z,0.40
2019-01-25T10:41:19.650Z,0.50
2019-01-25T10:43:50.612Z,0.60
2019-01-25T10:46:19.898Z,0.50
2019-01-25T10:48:49.030Z,0.50
2019-01-25T10:51:18.078Z,0.50
2019-01-25T10:53:47.164Z,0.50
2019-01-25T10:56:16.202Z,0.60
2019-01-25T10:58:45.264Z,0.60
2019-01-25T11:01:14.362Z,0.70
2019-01-25T11:03:44.258Z,0.70
2019-01-25T11:06:13.396Z,0.70
2019-01-25T11:08:42.538Z,0.80
2019-01-25T11:11:11.620Z,0.80
2019-01-25T11:13:40.786Z,0.80
2019-01-25T11:16:11.950Z,0.90
2019-01-25T11:18:40.699Z,0.90
2019-01-25T11:21:11.294Z,1.00
2019-01-25T11:23:40.494Z,1.00
2019-01-25T11:26:09.604Z,1.00
2019-01-25T11:28:38.670Z,1.00
2019-01-25T11:31:07.682Z,1.00
2019-01-25T11:33:36.823Z,1.10
2019-01-25T11:36:05.877Z,1.10
2019-01-25T11:38:34.869Z,1.20
2019-01-25T11:41:03.949Z,1.20
2019-01-25T11:43:32.985Z,1.20
2019-01-25T11:46:02.057Z,1.30
2019-01-25T11:48:31.067Z,1.40
2019-01-25T11:51:00.111Z,1.30
2019-01-25T11:53:29.168Z,1.30
2019-01-25T11:55:58.249Z,1.40
2019-01-25T11:58:27.364Z,1.50
2019-01-25T12:00:56.461Z,1.50
2019-01-25T12:03:25.546Z,1.50
2019-01-25T12:05:54.711Z,1.50
2019-01-25T12:08:23.783Z,1.50
2019-01-25T12:10:52.769Z,1.40
2019-01-25T12:13:21.877Z,1.50
2019-01-25T12:15:51.449Z,1.50
2019-01-25T12:18:20.689Z,1.50
2019-01-25T12:20:49.774Z,1.60
2019-01-25T12:23:18.858Z,1.60
2019-01-25T12:25:47.899Z,1.60
2019-01-25T12:28:16.873Z,1.60
2019-01-25T12:30:45.957Z,1.60
2019-01-25T12:33:15.017Z,1.60
2019-01-25T12:35:44.831Z,1.60
2019-01-25T12:38:13.905Z,1.70
2019-01-25T12:40:42.954Z,1.70
2019-01-25T12:43:12.019Z,1.70
2019-01-25T12:45:41.120Z,1.70
2019-01-25T12:48:10.120Z,1.80
2019-01-25T12:50:54.927Z,1.70
2019-01-25T12:53:25.221Z,1.70
2019-01-25T12:55:54.310Z,1.70
2019-01-25T12:58:23.467Z,1.70
2019-01-25T13:00:52.998Z,1.70
2019-01-25T13:03:22.097Z,1.70
2019-01-25T13:05:51.286Z,1.70
2019-01-25T13:08:20.390Z,1.70
2019-01-25T13:10:49.366Z,1.60
2019-01-25T13:13:18.622Z,1.60
2019-01-25T13:15:47.756Z,1.60
2019-01-25T13:18:16.805Z,1.60
2019-01-25T13:20:45.895Z,1.60
2019-01-25T13:23:14.966Z,1.60
2019-01-25T13:25:47.212Z,1.60
2019-01-25T13:28:14.857Z,1.60
2019-01-25T13:30:43.982Z,1.60
2019-01-25T13:33:16.079Z,1.60
2019-01-25T13:35:45.176Z,1.60
2019-01-25T13:38:14.350Z,1.60
2019-01-25T13:40:43.471Z,1.50
2019-01-25T13:43:12.600Z,1.60
2019-01-25T13:45:41.570Z,1.60
2019-01-25T13:48:10.602Z,1.50
2019-01-25T13:50:39.683Z,1.50
2019-01-25T13:53:08.663Z,1.50
2019-01-25T13:55:37.717Z,1.50
2019-01-25T13:58:06.801Z,1.50
2019-01-25T14:00:35.911Z,1.60
2019-01-25T14:03:04.966Z,1.60
2019-01-25T14:05:34.037Z,1.60
2019-01-25T14:08:03.149Z,1.60
2019-01-25T14:10:33.963Z,1.60
2019-01-25T14:13:03.058Z,1.60
2019-01-25T14:15:32.464Z,1.60
2019-01-25T14:18:01.516Z,1.60
2019-01-25T14:20:31.695Z,1.60
2019-01-25T14:23:00.755Z,1.60
2019-01-25T14:25:30.343Z,1.60
2019-01-25T14:27:59.358Z,1.60
2019-01-25T14:30:46.150Z,1.60
2019-01-25T14:33:15.246Z,1.60
2019-01-25T14:35:44.257Z,1.60
2019-01-25T14:38:17.230Z,1.60
2019-01-25T14:40:46.242Z,1.60
2019-01-25T14:43:15.311Z,1.60
2019-01-25T14:45:44.379Z,1.60
2019-01-25T14:48:13.466Z,1.60
2019-01-25T14:50:42.552Z,1.60
2019-01-25T14:53:11.624Z,1.50
2019-01-25T14:55:40.731Z,1.60
2019-01-25T14:58:09.780Z,1.60
2019-01-25T15:00:38.785Z,1.60
2019-01-25T15:03:07.883Z,1.60
2019-01-25T15:05:36.954Z,1.60
2019-01-25T15:08:06.038Z,1.60
2019-01-25T15:10:35.242Z,1.60
2019-01-25T15:13:04.866Z,1.60
2019-01-25T15:15:33.926Z,1.60
2019-01-25T15:18:03.022Z,1.60
2019-01-25T15:20:32.000Z,1.60
2019-01-25T15:23:01.153Z,1.60
2019-01-25T15:25:30.234Z,1.60
2019-01-25T15:27:59.298Z,1.60
2019-01-25T15:30:30.027Z,1.60
2019-01-25T15:33:00.884Z,1.60
2019-01-25T15:35:29.957Z,1.60
2019-01-25T15:37:59.054Z,1.70
2019-01-25T15:40:28.159Z,1.70
2019-01-25T15:42:57.211Z,1.70
2019-01-25T15:45:26.213Z,1.60
2019-01-25T15:47:55.193Z,1.60
2019-01-25T15:50:29.086Z,1.70
2019-01-25T15:52:58.155Z,1.60
2019-01-25T15:55:27.303Z,1.70
2019-01-25T15:57:56.369Z,1.70
2019-01-25T16:00:26.723Z,1.70
2019-01-25T16:02:55.778Z,1.70
2019-01-25T16:05:25.279Z,1.70
2019-01-25T16:07:54.377Z,1.70
2019-01-25T16:10:23.507Z,1.70
2019-01-25T16:12:52.794Z,1.70
2019-01-25T16:15:24.206Z,1.70
2019-01-25T16:17:53.307Z,1.70
2019-01-25T16:20:22.403Z,1.70
2019-01-25T16:23:10.629Z,1.70
2019-01-25T16:25:39.686Z,1.70
2019-01-25T16:28:08.730Z,1.70
2019-01-25T16:30:38.914Z,1.70
2019-01-25T16:33:07.993Z,1.70
2019-01-25T16:35:37.064Z,1.70
2019-01-25T16:38:06.359Z,1.70
2019-01-25T16:40:35.382Z,1.70
2019-01-25T16:43:05.874Z,1.70
2019-01-25T16:45:37.546Z,1.70
2019-01-25T16:48:06.762Z,1.70
2019-01-25T16:50:36.292Z,1.80
2019-01-25T16:53:06.575Z,1.80
2019-01-25T16:55:35.678Z,1.80
2019-01-25T16:58:04.737Z,1.80
2019-01-25T17:00:36.339Z,1.80
2019-01-25T17:03:05.442Z,1.80
2019-01-25T17:05:34.503Z,1.80
2019-01-25T17:08:03.557Z,1.80
2019-01-25T17:10:32.652Z,1.80
2019-01-25T17:13:01.792Z,1.80
2019-01-25T17:15:30.878Z,1.80
2019-01-25T17:18:00.034Z,1.80
2019-01-25T17:20:29.034Z,1.80
2019-01-25T17:22:58.069Z,1.90
2019-01-25T17:25:27.237Z,1.90
2019-01-25T17:27:56.281Z,1.90
2019-01-25T17:30:30.678Z,1.90
2019-01-25T17:33:00.708Z,1.90
2019-01-25T17:35:30.347Z,1.90
2019-01-25T17:37:59.466Z,1.90
2019-01-25T17:40:30.843Z,1.90
2019-01-25T17:42:59.943Z,1.90
2019-01-25T17:45:29.031Z,1.90
2019-01-25T17:51:34.370Z,1.90
2019-01-25T17:54:03.417Z,2.00
2019-01-25T17:56:32.566Z,1.90
2019-01-25T17:59:01.654Z,2.00
2019-01-25T18:01:32.270Z,2.00
2019-01-25T18:04:01.317Z,2.00
2019-01-25T18:06:30.406Z,2.00
2019-01-25T18:08:59.856Z,2.00
2019-01-25T18:11:28.901Z,2.00
2019-01-25T18:13:58.044Z,2.00
2019-01-25T18:16:27.118Z,2.00
2019-01-25T18:18:56.169Z,2.00
2019-01-25T18:21:25.306Z,2.00
2019-01-25T18:23:54.397Z,2.00
2019-01-25T18:26:25.129Z,2.10
2019-01-25T18:29:03.250Z,2.00
2019-01-25T18:31:33.055Z,2.10
2019-01-25T18:34:02.180Z,2.10
2019-01-25T18:36:35.466Z,2.10
2019-01-25T18:39:07.604Z,2.10
2019-01-25T18:41:36.581Z,2.10
2019-01-25T18:44:06.097Z,2.10
2019-01-25T18:46:35.150Z,2.20
2019-01-25T18:49:04.306Z,2.20
2019-01-25T18:51:33.391Z,2.20
2019-01-25T18:54:02.599Z,2.20
2019-01-25T18:56:31.910Z,2.20
2019-01-25T18:59:00.954Z,2.20
2019-01-25T19:01:30.250Z,2.20
2019-01-25T19:03:59.312Z,2.30
2019-01-25T19:06:28.529Z,2.30
2019-01-25T19:08:57.830Z,2.30
2019-01-25T19:11:26.894Z,2.30
2019-01-25T19:14:01.098Z,2.30
2019-01-25T19:16:30.297Z,2.30
2019-01-25T19:18:59.382Z,2.40
2019-01-25T19:21:28.485Z,2.40
2019-01-25T19:23:57.778Z,2.40
2019-01-25T19:26:26.867Z,2.40
2019-01-25T19:28:56.626Z,2.40
2019-01-25T19:31:25.794Z,2.40
2019-01-25T19:33:55.570Z,2.40
2019-01-25T19:36:24.800Z,2.50
2019-01-25T19:38:53.978Z,2.50
2019-01-25T19:41:23.199Z,2.50
2019-01-25T19:43:52.455Z,2.50
2019-01-25T19:46:21.574Z,2.50
2019-01-25T19:48:50.993Z,2.50
2019-01-25T19:51:22.959Z,2.50
2019-01-25T19:53:52.096Z,2.60
2019-01-25T19:56:21.446Z,2.60
2019-01-25T19:58:50.522Z,2.60
2019-01-25T20:01:19.728Z,2.60
2019-01-25T20:03:49.153Z,2.60
2019-01-25T20:06:18.285Z,2.60
2019-01-25T20:08:47.403Z,2.70
2019-01-25T20:11:16.456Z,2.80
2019-01-25T20:13:45.611Z,2.80
2019-01-25T20:16:35.622Z,2.90
2019-01-25T20:19:04.887Z,2.90
2019-01-25T20:21:33.955Z,2.90
2019-01-25T20:24:03.038Z,2.90
2019-01-25T20:26:32.314Z,3.00
2019-01-25T20:29:01.267Z,3.00
2019-01-25T20:31:30.384Z,3.00
2019-01-25T20:33:59.440Z,3.00
2019-01-25T20:36:28.611Z,3.10
2019-01-25T20:38:57.706Z,3.00
2019-01-25T20:41:26.823Z,3.10
2019-01-25T20:43:55.827Z,3.10
2019-01-25T20:46:24.922Z,3.10
2019-01-25T20:48:54.067Z,3.10
2019-01-25T20:51:23.122Z,3.10
2019-01-25T20:53:52.212Z,3.10
2019-01-25T20:56:21.274Z,3.20
2019-01-25T20:58:50.344Z,3.10
2019-01-25T21:01:19.434Z,3.20
2019-01-25T21:03:48.407Z,3.20
2019-01-25T21:06:17.453Z,3.30
2019-01-25T21:08:46.462Z,3.30
2019-01-25T21:11:15.510Z,3.30
2019-01-25T21:13:44.574Z,3.30
2019-01-25T21:16:13.652Z,3.30
2019-01-25T21:18:44.243Z,3.40
2019-01-25T21:21:13.509Z,3.40
2019-01-25T21:23:42.583Z,3.40
2019-01-25T21:26:11.758Z,3.50
2019-01-25T21:28:40.736Z,3.50
2019-01-25T21:31:09.718Z,3.50
2019-01-25T21:33:38.810Z,3.60
2019-01-25T21:36:07.919Z,3.60
2019-01-25T21:38:36.983Z,3.60
2019-01-25T21:41:06.174Z,3.60
2019-01-25T21:43:35.240Z,3.70
2019-01-25T21:46:04.297Z,3.70
2019-01-25T21:48:33.377Z,3.70
2019-01-25T21:51:02.443Z,3.80
2019-01-25T21:53:31.506Z,3.80
2019-01-25T21:56:00.602Z,3.90
2019-01-25T21:58:29.665Z,4.00
2019-01-25T22:00:58.719Z,4.00
2019-01-25T22:03:27.926Z,4.00
2019-01-25T22:08:33.133Z,4.10
2019-01-25T22:11:02.181Z,4.10
2019-01-25T22:13:31.195Z,4.20
2019-01-25T22:16:00.275Z,4.20
2019-01-25T22:18:29.357Z,4.20
2019-01-25T22:20:58.429Z,4.20
2019-01-25T22:23:46.672Z,4.30
2019-01-25T22:26:15.725Z,4.30
2019-01-25T22:28:44.870Z,4.30
2019-01-25T22:31:13.947Z,4.30
2019-01-25T22:33:43.001Z,4.30
2019-01-25T22:36:11.982Z,4.30
2019-01-25T22:38:41.190Z,4.30
2019-01-25T22:41:10.255Z,4.40
2019-01-25T22:46:14.897Z,4.40
2019-01-25T22:48:43.970Z,4.40
2019-01-25T22:51:13.053Z,4.40
2019-01-25T22:53:42.046Z,4.50
2019-01-25T22:56:11.093Z,4.50
2019-01-25T22:58:40.088Z,4.50
2019-01-25T23:01:25.287Z,4.50
2019-01-25T23:04:27.605Z,4.50
2019-01-25T23:07:09.447Z,4.60
2019-01-25T23:09:49.988Z,4.60
2019-01-25T23:12:19.061Z,4.60
2019-01-25T23:14:48.147Z,4.60
2019-01-25T23:17:17.318Z,4.60
2019-01-25T23:19:46.385Z,4.60
2019-01-25T23:22:15.447Z,4.60
2019-01-25T23:24:44.517Z,4.60
2019-01-25T23:27:13.598Z,4.70
2019-01-25T23:29:42.595Z,4.70
2019-01-25T23:32:11.683Z,4.70
2019-01-25T23:34:40.749Z,4.70
2019-01-25T23:37:09.789Z,4.70
2019-01-25T23:39:38.818Z,4.70
2019-01-25T23:42:07.905Z,4.70
2019-01-25T23:44:36.973Z,4.70
2019-01-25T23:47:06.038Z,4.70
2019-01-25T23:49:35.122Z,4.70
2019-01-25T23:52:04.102Z,4.70
2019-01-25T23:54:33.149Z,4.70
2019-01-25T23:57:02.246Z,4.70
2019-01-25T23:59:31.266Z,4.70
